Terminal Aerodrome Forecast
Issued by NWS

Current Version | Previous Version | Graphics & Text | Print | Product List | Glossary Off
Versions: 1 2 3 4 5 6 7 8 9 10 11 12 13 14 15 16 17 18 19 20

633
FTUS42 KILM 162224 AAA
TAFCRE
TAF AMD
KCRE 162224Z 1622/1718 16008KT P6SM VCTS SCT035CB
      TEMPO 1622/1624 VRB15G25KT 2SM TSRA BR BKN025CB OVC040
     FM170000 25005KT P6SM SCT040
     FM170500 VRB02KT P6SM SCT150
      TEMPO 1709/1712 6SM BR FEW003
     FM171500 16006KT P6SM BKN040=

USA.gov is the U.S. government's official web portal to all federal, state and local government web resources and services.